createdAt,value
2017-04-21T00:00:41.976Z,1028.77
2017-04-21T00:01:42.703Z,1028.76
2017-04-21T00:02:43.417Z,1028.74
2017-04-21T00:03:44.144Z,1028.74
2017-04-21T00:04:44.864Z,1028.72
2017-04-21T00:05:45.597Z,1028.72
2017-04-21T00:06:46.316Z,1028.7
2017-04-21T00:07:47.048Z,1028.68
2017-04-21T00:08:47.802Z,1028.67
2017-04-21T00:09:48.546Z,1028.67
2017-04-21T00:10:49.271Z,1028.64
2017-04-21T00:11:50.008Z,1028.62
2017-04-21T00:12:50.744Z,1028.6
2017-04-21T00:13:51.475Z,1028.58
2017-04-21T00:14:52.204Z,1028.64
2017-04-21T00:15:52.917Z,1028.64
2017-04-21T00:16:53.717Z,1028.64
2017-04-21T00:17:54.474Z,1028.64
2017-04-21T00:18:55.196Z,1028.66
2017-04-21T00:19:55.926Z,1028.67
2017-04-21T00:20:56.651Z,1028.64
2017-04-21T00:21:57.407Z,1028.64
2017-04-21T00:22:58.185Z,1028.6
2017-04-21T00:23:58.958Z,1028.62
2017-04-21T00:24:59.690Z,1028.6
2017-04-21T00:26:00.401Z,1028.61
2017-04-21T00:27:01.132Z,1028.56
2017-04-21T00:28:01.853Z,1028.57
2017-04-21T00:29:02.572Z,1028.56
2017-04-21T00:30:03.303Z,1028.57
2017-04-21T00:31:03.998Z,1028.53
2017-04-21T00:32:04.752Z,1028.52
2017-04-21T00:33:05.462Z,1028.5
2017-04-21T00:34:06.177Z,1028.51
2017-04-21T00:35:06.908Z,1028.48
2017-04-21T00:36:07.652Z,1028.44
2017-04-21T00:37:08.371Z,1028.5
2017-04-21T00:38:09.091Z,1028.49
2017-04-21T00:39:09.831Z,1028.43
2017-04-21T00:40:10.537Z,1028.48
2017-04-21T00:41:11.268Z,1028.41
2017-04-21T00:42:12.006Z,1028.42
2017-04-21T00:43:12.707Z,1028.42
2017-04-21T00:44:13.433Z,1028.39
2017-04-21T00:45:14.155Z,1028.42
2017-04-21T00:46:14.868Z,1028.35
2017-04-21T00:47:15.605Z,1028.32
2017-04-21T00:48:16.324Z,1028.28
2017-04-21T00:49:17.056Z,1028.24
2017-04-21T00:50:17.771Z,1028.22
2017-04-21T00:51:18.538Z,1028.19
2017-04-21T00:52:19.247Z,1028.15
2017-04-21T00:53:20.000Z,1028.12
2017-04-21T00:54:20.738Z,1028.13
2017-04-21T00:55:21.445Z,1028.08
2017-04-21T00:56:22.162Z,1028.12
2017-04-21T00:57:22.878Z,1028.12
2017-04-21T00:58:23.623Z,1028.1
2017-04-21T00:59:24.348Z,1028.08
2017-04-21T01:00:25.063Z,1028.05
2017-04-21T01:01:25.774Z,1028.09
2017-04-21T01:02:26.498Z,1028.04
2017-04-21T01:03:27.230Z,1028
2017-04-21T01:04:27.959Z,1028.02
2017-04-21T01:05:28.689Z,1028.03
2017-04-21T01:06:29.448Z,1028.04
2017-04-21T01:07:30.169Z,1027.99
2017-04-21T01:08:30.894Z,1027.98
2017-04-21T01:09:31.616Z,1027.97
2017-04-21T01:10:32.337Z,1028
2017-04-21T01:11:33.068Z,1027.95
2017-04-21T01:12:33.779Z,1027.96
2017-04-21T01:13:34.513Z,1027.99
2017-04-21T01:14:35.232Z,1027.97
2017-04-21T01:15:35.965Z,1027.99
2017-04-21T01:16:36.682Z,1027.96
2017-04-21T01:17:37.404Z,1027.9
2017-04-21T01:18:38.128Z,1027.93
2017-04-21T01:19:38.884Z,1027.9
2017-04-21T01:20:39.574Z,1027.89
2017-04-21T01:21:40.299Z,1027.87
2017-04-21T01:22:41.020Z,1027.89
2017-04-21T01:23:41.795Z,1027.82
2017-04-21T01:24:42.518Z,1027.91
2017-04-21T01:25:43.247Z,1027.86
2017-04-21T01:26:43.967Z,1027.86
2017-04-21T01:27:44.695Z,1027.85
2017-04-21T01:28:45.462Z,1027.87
2017-04-21T01:29:46.193Z,1027.87
2017-04-21T01:30:46.928Z,1027.84
2017-04-21T01:31:47.655Z,1027.79
2017-04-21T01:32:48.381Z,1027.81
2017-04-21T01:33:49.123Z,1027.76
2017-04-21T01:34:49.831Z,1027.77
2017-04-21T01:35:50.561Z,1027.75
2017-04-21T01:36:51.314Z,1027.76
2017-04-21T01:37:58.612Z,1027.76
2017-04-21T01:38:59.396Z,1027.76
2017-04-21T01:40:00.090Z,1027.78
2017-04-21T01:41:00.818Z,1027.75
2017-04-21T01:42:01.530Z,1027.73
2017-04-21T01:43:02.246Z,1027.76
2017-04-21T01:44:02.976Z,1027.7
2017-04-21T01:45:03.701Z,1027.72
2017-04-21T01:46:04.461Z,1027.66
2017-04-21T01:47:05.195Z,1027.65
2017-04-21T01:48:05.912Z,1027.66
2017-04-21T01:49:06.636Z,1027.66
2017-04-21T01:50:07.381Z,1027.69
2017-04-21T01:51:08.090Z,1027.62
2017-04-21T01:52:08.804Z,1027.62
2017-04-21T01:53:09.530Z,1027.63
2017-04-21T01:54:10.257Z,1027.66
2017-04-21T01:55:10.964Z,1027.66
2017-04-21T01:56:11.713Z,1027.61
2017-04-21T01:57:12.446Z,1027.6
2017-04-21T01:58:13.156Z,1027.61
2017-04-21T01:59:13.876Z,1027.63
2017-04-21T02:00:14.597Z,1027.59
2017-04-21T02:01:15.299Z,1027.6
2017-04-21T02:02:16.055Z,1027.6
2017-04-21T02:03:16.768Z,1027.57
2017-04-21T02:04:17.498Z,1027.53
2017-04-21T02:05:18.225Z,1027.58
2017-04-21T02:06:18.954Z,1027.58
2017-04-21T02:07:19.678Z,1027.56
2017-04-21T02:08:20.394Z,1027.51
2017-04-21T02:09:21.114Z,1027.53
2017-04-21T02:10:21.829Z,1027.49
2017-04-21T02:11:22.551Z,1027.51
2017-04-21T02:12:23.301Z,1027.49
2017-04-21T02:13:24.010Z,1027.47
2017-04-21T02:14:24.725Z,1027.38
2017-04-21T02:15:25.446Z,1027.39
2017-04-21T02:16:26.178Z,1027.41
2017-04-21T02:17:26.894Z,1027.43
2017-04-21T02:18:27.632Z,1027.38
2017-04-21T02:19:28.355Z,1027.35
2017-04-21T02:20:29.077Z,1027.35
2017-04-21T02:21:29.796Z,1027.37
2017-04-21T02:22:30.536Z,1027.42
2017-04-21T02:23:31.234Z,1027.41
2017-04-21T02:24:31.963Z,1027.37
2017-04-21T02:25:32.687Z,1027.37
2017-04-21T02:26:33.426Z,1027.4
2017-04-21T02:27:34.138Z,1027.37
2017-04-21T02:28:34.859Z,1027.37
2017-04-21T02:29:35.582Z,1027.33
2017-04-21T02:30:36.311Z,1027.31
2017-04-21T02:31:37.025Z,1027.31
2017-04-21T02:32:37.763Z,1027.3
2017-04-21T02:33:38.488Z,1027.27
2017-04-21T02:34:39.200Z,1027.22
2017-04-21T02:35:39.890Z,1027.19
2017-04-21T02:36:40.649Z,1027.17
2017-04-21T02:37:41.414Z,1027.16
2017-04-21T02:38:42.144Z,1027.18
2017-04-21T02:39:42.867Z,1027.11
2017-04-21T02:40:43.592Z,1027.11
2017-04-21T02:41:44.315Z,1027.13
2017-04-21T02:42:45.034Z,1027.11
2017-04-21T02:43:45.762Z,1027.16
2017-04-21T02:44:46.486Z,1027.15
2017-04-21T02:45:47.209Z,1027.15
2017-04-21T02:46:47.940Z,1027.12
2017-04-21T02:47:48.658Z,1027.12
2017-04-21T02:48:49.380Z,1027.09
2017-04-21T02:49:50.098Z,1027.08
2017-04-21T02:50:50.830Z,1027.04
2017-04-21T02:51:51.547Z,1027.01
2017-04-21T02:52:52.273Z,1026.98
2017-04-21T02:53:53.008Z,1026.95
2017-04-21T02:54:53.769Z,1026.94
2017-04-21T02:55:54.491Z,1026.89
2017-04-21T02:56:55.227Z,1026.9
2017-04-21T02:57:55.949Z,1026.9
2017-04-21T02:58:56.673Z,1026.87
2017-04-21T02:59:57.394Z,1026.87
2017-04-21T03:00:58.107Z,1026.84
2017-04-21T03:01:58.849Z,1026.83
2017-04-21T03:02:59.569Z,1026.85
2017-04-21T03:04:00.265Z,1026.83
2017-04-21T03:05:01.011Z,1026.81
2017-04-21T03:06:01.723Z,1026.78
2017-04-21T03:07:02.459Z,1026.77
2017-04-21T03:08:03.175Z,1026.81
2017-04-21T03:09:03.998Z,1026.79
2017-04-21T03:10:04.715Z,1026.84
2017-04-21T03:11:05.397Z,1026.86
2017-04-21T03:12:06.119Z,1026.83
2017-04-21T03:13:06.783Z,1026.86
2017-04-21T03:14:07.460Z,1026.83
2017-04-21T03:15:08.128Z,1026.82
2017-04-21T03:16:08.806Z,1026.81
2017-04-21T03:17:09.479Z,1026.8
2017-04-21T03:18:10.149Z,1026.8
2017-04-21T03:19:10.825Z,1026.87
2017-04-21T03:20:11.494Z,1026.82
2017-04-21T03:21:12.166Z,1026.81
2017-04-21T03:22:12.840Z,1026.79
2017-04-21T03:23:13.519Z,1026.82
2017-04-21T03:24:14.233Z,1026.79
2017-04-21T03:25:14.913Z,1026.76
2017-04-21T03:26:15.575Z,1026.74
2017-04-21T03:27:16.260Z,1026.7
2017-04-21T03:28:16.969Z,1026.75
2017-04-21T03:29:17.647Z,1026.69
2017-04-21T03:30:18.321Z,1026.69
2017-04-21T03:31:19.041Z,1026.65
2017-04-21T03:32:19.817Z,1026.66
2017-04-21T03:33:20.492Z,1026.64
2017-04-21T03:34:21.181Z,1026.61
2017-04-21T03:35:21.848Z,1026.61
2017-04-21T03:36:22.538Z,1026.65
2017-04-21T03:37:23.192Z,1026.62
2017-04-21T03:38:23.952Z,1026.61
2017-04-21T03:39:24.635Z,1026.63
2017-04-21T03:40:25.349Z,1026.62
2017-04-21T03:41:26.154Z,1026.57
2017-04-21T03:42:26.848Z,1026.6
2017-04-21T03:43:27.554Z,1026.59
2017-04-21T03:44:28.241Z,1026.58
2017-04-21T03:45:28.918Z,1026.61
2017-04-21T03:46:29.600Z,1026.57
2017-04-21T03:47:30.349Z,1026.6
2017-04-21T03:48:31.052Z,1026.6
2017-04-21T03:49:31.734Z,1026.59
2017-04-21T03:50:32.423Z,1026.54
2017-04-21T03:51:33.121Z,1026.57
2017-04-21T03:52:33.799Z,1026.57
2017-04-21T03:53:34.505Z,1026.53
2017-04-21T03:54:35.175Z,1026.56
2017-04-21T03:55:35.855Z,1026.54
2017-04-21T03:56:36.530Z,1026.51
2017-04-21T03:57:37.217Z,1026.53
2017-04-21T03:58:37.889Z,1026.54
2017-04-21T03:59:38.586Z,1026.57
2017-04-21T04:00:39.265Z,1026.54
2017-04-21T04:01:39.982Z,1026.55
2017-04-21T04:02:40.692Z,1026.5
2017-04-21T04:03:41.396Z,1026.5
2017-04-21T04:04:42.069Z,1026.48
2017-04-21T04:05:42.743Z,1026.49
2017-04-21T04:06:43.436Z,1026.5
2017-04-21T04:07:44.117Z,1026.45
2017-04-21T04:08:44.792Z,1026.47
2017-04-21T04:09:45.460Z,1026.44
2017-04-21T04:10:46.131Z,1026.42
2017-04-21T04:11:46.809Z,1026.41
2017-04-21T04:12:47.490Z,1026.45
2017-04-21T04:13:48.173Z,1026.41
2017-04-21T04:14:48.872Z,1026.44
2017-04-21T04:15:49.549Z,1026.41
2017-04-21T04:16:50.268Z,1026.36
2017-04-21T04:17:50.946Z,1026.36
2017-04-21T04:18:51.620Z,1026.4
2017-04-21T04:19:52.284Z,1026.35
2017-04-21T04:20:52.967Z,1026.36
2017-04-21T04:21:53.628Z,1026.37
2017-04-21T04:22:54.309Z,1026.33
2017-04-21T04:23:54.996Z,1026.35
2017-04-21T04:24:55.673Z,1026.35
2017-04-21T04:25:56.375Z,1026.38
2017-04-21T04:26:57.049Z,1026.39
2017-04-21T04:27:57.719Z,1026.36
2017-04-21T04:28:58.409Z,1026.37
2017-04-21T04:29:59.096Z,1026.31
2017-04-21T04:30:59.764Z,1026.34
2017-04-21T04:32:00.722Z,1026.3
2017-04-21T04:33:01.590Z,1026.32
2017-04-21T04:34:02.400Z,1026.32
2017-04-21T04:35:03.363Z,1026.34
2017-04-21T04:36:04.065Z,1026.33
2017-04-21T04:37:04.768Z,1026.29
2017-04-21T04:38:05.431Z,1026.29
2017-04-21T04:39:06.139Z,1026.31
2017-04-21T04:40:06.808Z,1026.24
2017-04-21T04:41:07.487Z,1026.23
2017-04-21T04:42:08.157Z,1026.27
2017-04-21T04:43:08.826Z,1026.25
2017-04-21T04:44:09.499Z,1026.22
2017-04-21T04:45:10.169Z,1026.18
2017-04-21T04:46:10.843Z,1026.18
2017-04-21T04:47:11.513Z,1026.2
2017-04-21T04:48:12.191Z,1026.15
2017-04-21T04:49:12.875Z,1026.13
2017-04-21T04:50:13.539Z,1026.18
2017-04-21T04:51:14.219Z,1026.2
2017-04-21T04:52:14.894Z,1026.2
2017-04-21T04:53:15.570Z,1026.17
2017-04-21T04:54:16.218Z,1026.18
2017-04-21T04:55:16.894Z,1026.18
2017-04-21T04:56:17.603Z,1026.2
2017-04-21T04:57:18.292Z,1026.26
2017-04-21T04:58:18.985Z,1026.26
2017-04-21T04:59:19.671Z,1026.24
2017-04-21T05:00:20.370Z,1026.24
2017-04-21T05:01:21.865Z,1026.21
2017-04-21T05:02:22.555Z,1026.22
2017-04-21T05:03:23.259Z,1026.23
2017-04-21T05:04:23.917Z,1026.21
2017-04-21T05:05:24.599Z,1026.23
2017-04-21T05:06:25.357Z,1026.22
2017-04-21T05:07:26.043Z,1026.28
2017-04-21T05:08:26.755Z,1026.24
2017-04-21T05:09:27.605Z,1026.2
2017-04-21T05:10:28.334Z,1026.19
2017-04-21T05:11:29.353Z,1026.2
2017-04-21T05:12:30.164Z,1026.2
2017-04-21T05:13:31.101Z,1026.15
2017-04-21T05:14:31.778Z,1026.22
2017-04-21T05:15:32.482Z,1026.23
2017-04-21T05:16:33.225Z,1026.21
2017-04-21T05:17:34.084Z,1026.22
2017-04-21T05:18:34.830Z,1026.2
2017-04-21T05:19:35.541Z,1026.19
2017-04-21T05:20:36.228Z,1026.22
2017-04-21T05:21:36.969Z,1026.22
2017-04-21T05:22:37.871Z,1026.21
2017-04-21T05:23:38.552Z,1026.15
2017-04-21T05:24:39.230Z,1026.18
2017-04-21T05:25:39.943Z,1026.15
2017-04-21T05:26:40.899Z,1026.14
2017-04-21T05:27:41.623Z,1026.16
2017-04-21T05:28:42.318Z,1026.13
2017-04-21T05:29:43.020Z,1026.18
2017-04-21T05:30:43.699Z,1026.14
2017-04-21T05:31:44.380Z,1026.16
2017-04-21T05:32:45.340Z,1026.23
2017-04-21T05:33:46.160Z,1026.18
2017-04-21T05:34:46.991Z,1026.21
2017-04-21T05:35:47.701Z,1026.18
2017-04-21T05:36:48.418Z,1026.18
2017-04-21T05:37:49.165Z,1026.17
2017-04-21T05:38:49.858Z,1026.22
2017-04-21T05:39:50.550Z,1026.25
2017-04-21T05:40:51.236Z,1026.2
2017-04-21T05:41:51.976Z,1026.25
2017-04-21T05:42:52.654Z,1026.25
2017-04-21T05:43:53.350Z,1026.24
2017-04-21T05:44:54.049Z,1026.23
2017-04-21T05:45:54.755Z,1026.19
2017-04-21T05:46:55.440Z,1026.18
2017-04-21T05:47:56.116Z,1026.17
2017-04-21T05:48:56.796Z,1026.17
2017-04-21T05:49:57.501Z,1026.23
2017-04-21T05:50:58.208Z,1026.17
2017-04-21T05:51:58.963Z,1026.2
2017-04-21T05:52:59.677Z,1026.12
2017-04-21T05:54:00.365Z,1026.12
2017-04-21T05:55:01.075Z,1026.12
2017-04-21T05:56:01.758Z,1026.1
2017-04-21T05:57:02.436Z,1026.05
2017-04-21T05:58:03.162Z,1026.11
2017-04-21T05:59:03.867Z,1026.11
2017-04-21T06:00:04.543Z,1026.03
2017-04-21T06:01:05.313Z,1026.05
2017-04-21T06:02:06.017Z,1026.06
2017-04-21T06:03:06.706Z,1026.05
2017-04-21T06:04:07.425Z,1026.1
2017-04-21T06:05:08.109Z,1026.1
2017-04-21T06:06:08.838Z,1026.14
2017-04-21T06:07:09.528Z,1026.07
2017-04-21T06:08:10.269Z,1026.04
2017-04-21T06:09:11.000Z,1025.98
2017-04-21T06:10:11.697Z,1026.02
2017-04-21T06:11:12.402Z,1026
2017-04-21T06:12:13.070Z,1026.02
2017-04-21T06:13:13.770Z,1026.01
2017-04-21T06:14:14.453Z,1026.04
2017-04-21T06:15:15.187Z,1026.01
2017-04-21T06:16:15.881Z,1026.02
2017-04-21T06:17:16.567Z,1026.04
2017-04-21T06:18:17.247Z,1025.99
2017-04-21T06:19:17.930Z,1025.96
2017-04-21T06:20:18.598Z,1025.97
2017-04-21T06:21:19.284Z,1025.94
2017-04-21T06:22:19.951Z,1025.98
2017-04-21T06:23:20.657Z,1025.94
2017-04-21T06:24:21.350Z,1025.92
2017-04-21T06:25:22.024Z,1025.94
2017-04-21T06:26:22.734Z,1025.91
2017-04-21T06:27:23.438Z,1025.91
2017-04-21T06:28:24.188Z,1025.91
2017-04-21T06:29:24.872Z,1025.91
2017-04-21T06:30:25.572Z,1025.91
2017-04-21T06:31:26.238Z,1025.91
2017-04-21T06:32:26.917Z,1025.94
2017-04-21T06:33:27.595Z,1025.96
2017-04-21T06:34:28.329Z,1025.87
2017-04-21T06:35:29.005Z,1025.98
2017-04-21T06:36:29.721Z,1025.94
2017-04-21T06:37:30.419Z,1026
2017-04-21T06:38:31.104Z,1025.97
2017-04-21T06:39:31.792Z,1025.99
2017-04-21T06:40:32.485Z,1026.04
2017-04-21T06:41:33.190Z,1026.01
2017-04-21T06:42:33.915Z,1026.03
2017-04-21T06:43:34.622Z,1026.05
2017-04-21T06:44:35.957Z,1026
2017-04-21T06:45:37.185Z,1025.98
2017-04-21T06:46:37.936Z,1025.97
2017-04-21T06:47:38.679Z,1025.99
2017-04-21T06:48:39.396Z,1026
2017-04-21T06:49:40.140Z,1026.02
2017-04-21T06:50:40.826Z,1025.99
2017-04-21T06:51:42.989Z,1026.03
2017-04-21T06:52:45.802Z,1025.97
2017-04-21T06:53:48.337Z,1025.95
2017-04-21T06:54:50.675Z,1025.97
2017-04-21T06:55:51.754Z,1025.97
2017-04-21T06:56:52.896Z,1025.95
2017-04-21T06:57:53.619Z,1025.92
2017-04-21T06:58:54.337Z,1025.9
2017-04-21T06:59:55.815Z,1025.91
2017-04-21T07:00:56.567Z,1025.93
2017-04-21T07:01:57.328Z,1025.91
2017-04-21T07:02:57.995Z,1025.92
2017-04-21T07:03:58.725Z,1025.9
2017-04-21T07:04:59.988Z,1025.95
2017-04-21T07:06:00.706Z,1025.94
2017-04-21T07:07:01.445Z,1025.93
2017-04-21T07:08:02.128Z,1025.88
2017-04-21T07:09:02.830Z,1025.91
2017-04-21T07:10:03.541Z,1025.93
2017-04-21T07:11:04.299Z,1025.93
2017-04-21T07:12:05.023Z,1025.97
2017-04-21T07:13:05.754Z,1025.93
2017-04-21T07:14:06.531Z,1025.91
2017-04-21T07:15:07.294Z,1025.91
2017-04-21T07:16:08.009Z,1025.87
2017-04-21T07:17:08.731Z,1025.87
2017-04-21T07:18:09.479Z,1025.87
2017-04-21T07:19:10.182Z,1025.85
2017-04-21T07:20:10.886Z,1025.83
2017-04-21T07:21:11.574Z,1025.82
2017-04-21T07:22:12.275Z,1025.82
2017-04-21T07:23:12.980Z,1025.79
2017-04-21T07:24:13.658Z,1025.84
2017-04-21T07:25:14.397Z,1025.79
2017-04-21T07:26:15.093Z,1025.82
2017-04-21T07:27:15.790Z,1025.83
2017-04-21T07:28:16.525Z,1025.8
2017-04-21T07:29:17.213Z,1025.83
2017-04-21T07:30:17.922Z,1025.85
2017-04-21T07:31:18.638Z,1025.86
2017-04-21T07:32:19.352Z,1025.87
2017-04-21T07:33:20.067Z,1025.84
2017-04-21T07:34:20.745Z,1025.84
2017-04-21T07:35:21.448Z,1025.83
2017-04-21T07:36:22.211Z,1025.9
2017-04-21T07:37:22.937Z,1025.89
2017-04-21T07:38:23.675Z,1025.88
2017-04-21T07:39:24.325Z,1025.89
2017-04-21T07:40:25.072Z,1025.87
2017-04-21T07:41:25.756Z,1025.88
2017-04-21T07:42:26.497Z,1025.87
2017-04-21T07:43:27.181Z,1025.91
2017-04-21T07:44:27.869Z,1025.9
2017-04-21T07:45:28.562Z,1025.89
2017-04-21T07:46:29.245Z,1025.89
2017-04-21T07:47:29.957Z,1025.87
2017-04-21T07:48:30.657Z,1025.91
2017-04-21T07:49:31.331Z,1025.88
2017-04-21T07:50:32.006Z,1025.84
2017-04-21T07:51:32.675Z,1025.87
2017-04-21T07:52:33.347Z,1025.86
2017-04-21T07:53:34.041Z,1025.89
2017-04-21T07:54:34.717Z,1025.85
2017-04-21T07:55:35.554Z,1025.81
2017-04-21T07:56:36.369Z,1025.79
2017-04-21T07:57:37.039Z,1025.78
2017-04-21T07:58:37.788Z,1025.78
2017-04-21T07:59:38.468Z,1025.75
2017-04-21T08:00:39.167Z,1025.75
2017-04-21T08:01:39.880Z,1025.75
2017-04-21T08:02:40.585Z,1025.79
2017-04-21T08:03:41.308Z,1025.82
2017-04-21T08:04:41.989Z,1025.83
2017-04-21T08:05:42.694Z,1025.76
2017-04-21T08:06:43.372Z,1025.72
2017-04-21T08:07:44.049Z,1025.72
2017-04-21T08:08:44.764Z,1025.79
2017-04-21T08:09:45.464Z,1025.69
2017-04-21T08:10:46.160Z,1025.77
2017-04-21T08:11:46.847Z,1025.69
2017-04-21T08:12:47.531Z,1025.71
2017-04-21T08:13:48.252Z,1025.65
2017-04-21T08:14:48.954Z,1025.69
2017-04-21T08:15:49.689Z,1025.61
2017-04-21T08:16:50.384Z,1025.63
2017-04-21T08:17:52.027Z,1025.68
2017-04-21T08:18:54.354Z,1025.81
2017-04-21T08:19:56.738Z,1025.69
2017-04-21T08:20:58.348Z,1025.72
2017-04-21T08:21:59.055Z,1025.79
2017-04-21T08:22:59.738Z,1025.81
2017-04-21T08:24:00.449Z,1025.77
2017-04-21T08:25:01.175Z,1025.75
2017-04-21T08:26:01.898Z,1025.75
2017-04-21T08:27:02.599Z,1025.7
2017-04-21T08:28:03.328Z,1025.6
2017-04-21T08:29:04.031Z,1025.71
2017-04-21T08:30:04.744Z,1025.79
2017-04-21T08:31:05.412Z,1025.78
2017-04-21T08:32:06.106Z,1025.95
2017-04-21T08:33:06.829Z,1025.84
2017-04-21T08:34:07.558Z,1025.85
2017-04-21T08:35:08.251Z,1025.73
2017-04-21T08:36:08.941Z,1025.83
2017-04-21T08:37:09.683Z,1025.79
2017-04-21T08:38:10.380Z,1025.75
2017-04-21T08:39:11.158Z,1025.69
2017-04-21T08:40:11.880Z,1025.65
2017-04-21T08:41:12.569Z,1025.65
2017-04-21T08:42:13.287Z,1025.63
2017-04-21T08:43:13.991Z,1025.64
2017-04-21T08:44:14.717Z,1025.63
2017-04-21T08:45:15.411Z,1025.58
2017-04-21T08:46:16.116Z,1025.52
2017-04-21T08:47:16.828Z,1025.52
2017-04-21T08:48:17.540Z,1025.5
2017-04-21T08:49:18.303Z,1025.51
2017-04-21T08:50:19.004Z,1025.48
2017-04-21T08:51:19.738Z,1025.44
2017-04-21T08:52:20.474Z,1025.47
2017-04-21T08:53:21.187Z,1025.4
2017-04-21T08:54:21.929Z,1025.45
2017-04-21T08:55:22.634Z,1025.37
2017-04-21T08:56:23.328Z,1025.41
2017-04-21T08:57:24.037Z,1025.39
2017-04-21T08:58:24.762Z,1025.36
2017-04-21T08:59:25.450Z,1025.37
2017-04-21T09:00:26.178Z,1025.37
2017-04-21T09:01:26.904Z,1025.42
2017-04-21T09:02:27.601Z,1025.33
2017-04-21T09:03:28.307Z,1025.29
2017-04-21T09:04:29.035Z,1025.33
2017-04-21T09:05:29.782Z,1025.34
2017-04-21T09:06:30.498Z,1025.35
2017-04-21T09:07:31.231Z,1025.31
2017-04-21T09:08:31.940Z,1025.32
2017-04-21T09:09:32.647Z,1025.32
2017-04-21T09:10:33.365Z,1025.35
2017-04-21T09:11:34.080Z,1025.33
2017-04-21T09:12:34.836Z,1025.32
2017-04-21T09:13:35.563Z,1025.21
2017-04-21T09:14:36.305Z,1025.23
2017-04-21T09:15:37.027Z,1025.24
2017-04-21T09:16:37.743Z,1025.23
2017-04-21T09:17:38.486Z,1025.23
2017-04-21T09:18:39.484Z,1025.33
2017-04-21T09:19:40.280Z,1025.3
2017-04-21T09:20:40.987Z,1025.24
2017-04-21T09:21:41.728Z,1025.19
2017-04-21T09:22:42.419Z,1025.2
2017-04-21T09:23:43.132Z,1025.24
2017-04-21T09:24:43.851Z,1025.16
2017-04-21T09:25:44.533Z,1025.2
2017-04-21T09:26:45.241Z,1025.1
2017-04-21T09:27:45.968Z,1025.13
2017-04-21T09:28:46.717Z,1025.09
2017-04-21T09:29:47.449Z,1025.06
2017-04-21T09:30:48.150Z,1025.05
2017-04-21T09:31:48.896Z,1025.02
2017-04-21T09:32:49.624Z,1025.08
2017-04-21T09:33:50.366Z,1025.11
2017-04-21T09:34:51.084Z,1025
2017-04-21T09:35:51.835Z,1025.03
2017-04-21T09:36:52.535Z,1025.1
2017-04-21T09:37:53.267Z,1025.05
2017-04-21T09:38:53.980Z,1024.92
2017-04-21T09:39:54.681Z,1024.9
2017-04-21T09:40:55.426Z,1024.94
2017-04-21T09:41:56.136Z,1024.94
2017-04-21T09:42:56.830Z,1024.92
2017-04-21T09:43:57.542Z,1024.85
2017-04-21T09:44:58.263Z,1024.83
2017-04-21T09:45:58.972Z,1024.9
2017-04-21T09:46:59.691Z,1024.88
2017-04-21T09:48:00.386Z,1024.83
2017-04-21T09:49:01.125Z,1024.85
2017-04-21T09:50:01.830Z,1024.83
2017-04-21T09:51:02.503Z,1024.85
2017-04-21T09:52:03.226Z,1024.83
2017-04-21T09:53:03.923Z,1024.85
2017-04-21T09:54:04.641Z,1024.77
2017-04-21T09:55:05.342Z,1024.69
2017-04-21T09:56:06.028Z,1024.74
2017-04-21T09:57:06.787Z,1024.68
2017-04-21T09:58:07.475Z,1024.7
2017-04-21T09:59:08.167Z,1024.7
2017-04-21T10:00:08.912Z,1024.73
2017-04-21T10:01:09.606Z,1024.64
2017-04-21T10:02:10.316Z,1024.65
2017-04-21T10:03:11.030Z,1024.69
2017-04-21T10:04:11.763Z,1024.7
2017-04-21T10:05:12.457Z,1024.66
2017-04-21T10:06:13.142Z,1024.59
2017-04-21T10:07:13.846Z,1024.56
2017-04-21T10:08:14.575Z,1024.61
2017-04-21T10:09:15.301Z,1024.59
2017-04-21T10:10:15.989Z,1024.57
2017-04-21T10:11:16.691Z,1024.53
2017-04-21T10:12:17.368Z,1024.59
2017-04-21T10:13:18.143Z,1024.58
2017-04-21T10:14:18.852Z,1024.57
2017-04-21T10:15:19.579Z,1024.56
2017-04-21T10:16:20.378Z,1024.52
2017-04-21T10:17:21.110Z,1024.54
2017-04-21T10:18:21.810Z,1024.57
2017-04-21T10:19:22.560Z,1024.61
2017-04-21T10:20:23.239Z,1024.58
2017-04-21T10:21:23.972Z,1024.57
2017-04-21T10:22:24.681Z,1024.55
2017-04-21T10:23:25.382Z,1024.5
2017-04-21T10:24:26.232Z,1024.52
2017-04-21T10:25:26.962Z,1024.5
2017-04-21T10:26:27.668Z,1024.5
2017-04-21T10:27:28.345Z,1024.45
2017-04-21T10:28:29.032Z,1024.44
2017-04-21T10:29:29.810Z,1024.36
2017-04-21T10:30:30.571Z,1024.44
2017-04-21T10:31:31.284Z,1024.26
2017-04-21T10:32:32.019Z,1024.31
2017-04-21T10:33:32.729Z,1024.34
2017-04-21T10:34:33.435Z,1024.28
2017-04-21T10:35:34.143Z,1024.29
2017-04-21T10:36:34.883Z,1024.29
2017-04-21T10:37:35.604Z,1024.27
2017-04-21T10:38:36.305Z,1024.29
2017-04-21T10:39:37.011Z,1024.25
2017-04-21T10:40:37.733Z,1024.22
2017-04-21T10:41:38.421Z,1024.18
2017-04-21T10:42:39.101Z,1024.18
2017-04-21T10:43:39.804Z,1024.16
2017-04-21T10:44:40.575Z,1024.08
2017-04-21T10:45:41.324Z,1024.1
2017-04-21T10:46:42.059Z,1024.05
2017-04-21T10:47:42.766Z,1024.13
2017-04-21T10:48:43.471Z,1024.05
2017-04-21T10:49:44.273Z,1024.04
2017-04-21T10:50:45.025Z,1024.06
2017-04-21T10:51:45.837Z,1023.97
2017-04-21T10:52:46.573Z,1023.94
2017-04-21T10:53:47.296Z,1023.95
2017-04-21T10:54:48.118Z,1023.91
2017-04-21T10:55:48.831Z,1023.82
2017-04-21T10:56:50.243Z,1023.84
2017-04-21T10:57:50.948Z,1023.92
2017-04-21T10:58:51.661Z,1023.87
2017-04-21T10:59:52.384Z,1023.85
2017-04-21T11:00:53.087Z,1023.84
2017-04-21T11:01:53.786Z,1023.86
2017-04-21T11:02:54.498Z,1023.8
2017-04-21T11:03:55.299Z,1023.73
2017-04-21T11:04:56.116Z,1023.74
2017-04-21T11:05:56.959Z,1023.72
2017-04-21T11:06:57.697Z,1023.77
2017-04-21T11:07:58.556Z,1023.67
2017-04-21T11:08:59.290Z,1023.67
2017-04-21T11:09:59.994Z,1023.67
2017-04-21T11:11:00.706Z,1023.66
2017-04-21T11:12:01.430Z,1023.63
2017-04-21T11:13:02.144Z,1023.66
2017-04-21T11:14:02.878Z,1023.66
2017-04-21T11:15:03.581Z,1023.67
2017-04-21T11:16:04.355Z,1023.68
2017-04-21T11:17:05.109Z,1023.61
2017-04-21T11:18:05.846Z,1023.64
2017-04-21T11:19:06.580Z,1023.63
2017-04-21T11:20:07.351Z,1023.6
2017-04-21T11:21:08.075Z,1023.62
2017-04-21T11:22:08.768Z,1023.53
2017-04-21T11:23:09.533Z,1023.59
2017-04-21T11:24:10.281Z,1023.66
2017-04-21T11:25:10.994Z,1023.67
2017-04-21T11:26:11.744Z,1023.64
2017-04-21T11:27:12.560Z,1023.64
2017-04-21T11:28:13.314Z,1023.6
2017-04-21T11:29:14.121Z,1023.51
2017-04-21T11:30:14.937Z,1023.49
2017-04-21T11:31:15.765Z,1023.57
2017-04-21T11:32:16.571Z,1023.53
2017-04-21T11:33:17.317Z,1023.46
2017-04-21T11:34:18.543Z,1023.48
2017-04-21T11:35:19.642Z,1023.45
2017-04-21T11:36:20.397Z,1023.43
2017-04-21T11:37:21.119Z,1023.34
2017-04-21T11:38:21.907Z,1023.41
2017-04-21T11:39:22.627Z,1023.4
2017-04-21T11:40:23.310Z,1023.33
2017-04-21T11:41:24.027Z,1023.3
2017-04-21T11:42:24.732Z,1023.35
2017-04-21T11:43:25.446Z,1023.31
2017-04-21T11:44:26.156Z,1023.26
2017-04-21T11:45:26.904Z,1023.24
2017-04-21T11:46:27.616Z,1023.19
2017-04-21T11:47:28.333Z,1023.17
2017-04-21T11:48:29.092Z,1023.12
2017-04-21T11:49:29.811Z,1023.07
2017-04-21T11:50:30.523Z,1023.15
2017-04-21T11:51:31.233Z,1023.11
2017-04-21T11:52:31.968Z,1023.07
2017-04-21T11:53:32.691Z,1022.98
2017-04-21T11:54:33.405Z,1023.03
2017-04-21T11:55:34.129Z,1022.98
2017-04-21T11:56:34.832Z,1022.97
2017-04-21T11:57:35.527Z,1022.94
2017-04-21T11:58:36.259Z,1022.89
2017-04-21T11:59:36.928Z,1022.86
2017-04-21T12:00:37.623Z,1022.92
2017-04-21T12:01:38.351Z,1022.92
2017-04-21T12:02:39.090Z,1022.83
2017-04-21T12:03:39.794Z,1022.79
2017-04-21T12:04:40.499Z,1022.78
2017-04-21T12:05:41.239Z,1022.72
2017-04-21T12:06:41.953Z,1022.68
2017-04-21T12:07:42.642Z,1022.69
2017-04-21T12:08:43.364Z,1022.69
2017-04-21T12:09:44.064Z,1022.68
2017-04-21T12:10:44.770Z,1022.74
2017-04-21T12:11:45.501Z,1022.68
2017-04-21T12:12:46.153Z,1022.69
2017-04-21T12:13:46.848Z,1022.66
2017-04-21T12:14:47.559Z,1022.61
2017-04-21T12:15:48.298Z,1022.66
2017-04-21T12:16:49.020Z,1022.68
2017-04-21T12:17:49.714Z,1022.61